Time;durP1;ratioP1;P1;durP2;ratioP2;P2;SDS_P1;SDS_P2;PMS_P1;PMS_P2;Temp;Humidity;BMP_temperature;BMP_pressure;BME280_temperature;BME280_humidity;BME280_pressure;Samples;Min_cycle;Max_cycle;Signal;HPM_P1;HPM_P2
2022/01/01 00:00:08;;;;;;;14.18;9.07;;;17.20;86.20;;;;;;5053446;28;20373;-48
2022/01/01 00:02:34;;;;;;;12.10;9.23;;;;;;;;;;5053340;28;20468;-47
2022/01/01 00:05:00;;;;;;;12.95;8.50;;;;;;;;;;5053141;28;20041;-48
2022/01/01 00:07:26;;;;;;;13.30;9.43;;;;;;;;;;5053277;28;20068;-48
2022/01/01 00:09:52;;;;;;;10.57;8.50;;;;;;;;;;5053098;28;20036;-49
2022/01/01 00:12:18;;;;;;;13.60;7.68;;;;;;;;;;5053163;28;20104;-49
2022/01/01 00:14:44;;;;;;;12.32;9.05;;;;;;;;;;5053342;28;20025;-49
2022/01/01 00:17:10;;;;;;;10.85;8.63;;;;;;;;;;5053034;28;20503;-48
2022/01/01 00:19:38;;;;;;;14.68;8.80;;;;;;;;;;5053028;28;20049;-49
2022/01/01 00:22:04;;;;;;;15.40;10.05;;;;;;;;;;5052285;28;20063;-49
2022/01/01 00:24:30;;;;;;;13.30;9.45;;;;;;;;;;5052896;28;20025;-48
2022/01/01 00:26:56;;;;;;;11.63;8.40;;;;;;;;;;5052794;28;20386;-51
2022/01/01 00:29:22;;;;;;;13.40;8.85;;;;;;;;;;5052623;28;20037;-48
2022/01/01 00:31:48;;;;;;;13.05;9.43;;;;;;;;;;5052611;28;20060;-48
2022/01/01 00:34:14;;;;;;;13.63;9.63;;;;;;;;;;5052527;28;20029;-49
2022/01/01 00:36:40;;;;;;;18.23;10.82;;;;;;;;;;5052612;28;20079;-46
2022/01/01 00:39:06;;;;;;;13.55;9.20;;;;;;;;;;5052511;28;20025;-48
2022/01/01 00:41:32;;;;;;;14.13;9.63;;;;;;;;;;5052626;28;20044;-49
2022/01/01 00:43:58;;;;;;;18.88;10.13;;;;;;;;;;5052545;28;20025;-50
2022/01/01 00:46:25;;;;;;;17.23;11.18;;;;;;;;;;5052343;28;20376;-49
2022/01/01 00:48:54;;;;;;;17.30;11.18;;;;;;;;;;5052686;28;20104;-48
2022/01/01 00:51:23;;;;;;;18.00;9.85;;;17.20;87.60;;;;;;5052257;28;20486;-48
2022/01/01 00:53:49;;;;;;;17.67;10.52;;;;;;;;;;5052418;28;20426;-48
2022/01/01 00:56:15;;;;;;;24.95;10.20;;;;;;;;;;5050999;28;20123;-48
2022/01/01 00:58:41;;;;;;;13.93;9.73;;;;;;;;;;5052346;28;20511;-47
2022/01/01 01:01:08;;;;;;;16.00;10.93;;;;;;;;;;5052250;28;20032;-46
2022/01/01 01:03:34;;;;;;;17.35;10.38;;;17.00;84.40;;;;;;5052031;28;20021;-48
2022/01/01 01:06:00;;;;;;;15.25;10.30;;;;;;;;;;5052093;28;20073;-47
2022/01/01 01:08:26;;;;;;;16.63;10.02;;;;;;;;;;5052329;28;20391;-47
2022/01/01 01:10:53;;;;;;;15.10;10.25;;;;;;;;;;5052065;28;20039;-48
2022/01/01 01:13:20;;;;;;;15.10;10.27;;;;;;;;;;5052044;28;20108;-48
2022/01/01 01:15:46;;;;;;;14.15;10.02;;;;;;;;;;5052329;28;20376;-48
2022/01/01 01:18:13;;;;;;;14.52;9.52;;;;;;;;;;5052038;28;20036;-47
2022/01/01 01:20:39;;;;;;;16.15;10.40;;;;;;;;;;5052262;28;20025;-48
2022/01/01 01:23:05;;;;;;;17.45;10.75;;;;;;;;;;5052122;28;20094;-48
2022/01/01 01:25:39;;;;;;;23.20;11.35;;;;;;;;;;5051876;28;20040;-46
2022/01/01 01:28:08;;;;;;;14.32;9.82;;;;;;;;;;5052256;28;20045;-46
2022/01/01 01:30:35;;;;;;;17.50;10.75;;;16.80;87.20;;;;;;5051928;28;20437;-47
2022/01/01 01:33:01;;;;;;;16.17;10.45;;;17.00;84.30;;;;;;5051551;28;20108;-48
2022/01/01 01:35:28;;;;;;;15.35;10.40;;;;;;;;;;5056009;28;20033;-47
2022/01/01 01:37:54;;;;;;;15.32;9.95;;;;;;;;;;5056050;28;20029;-47
2022/01/01 01:40:20;;;;;;;12.88;9.85;;;;;;;;;;5055872;28;20055;-47
2022/01/01 01:42:46;;;;;;;15.73;10.05;;;;;;;;;;5055767;28;20518;-47
2022/01/01 01:45:17;;;;;;;15.07;9.60;;;17.00;86.00;;;;;;5055764;28;20033;-47
2022/01/01 01:47:44;;;;;;;17.80;10.10;;;16.90;87.60;;;;;;5055781;28;20480;-47
2022/01/01 01:50:11;;;;;;;13.80;9.50;;;17.20;87.50;;;;;;5055740;28;20029;-47
2022/01/01 01:52:40;;;;;;;14.02;9.90;;;17.00;87.40;;;;;;5055700;28;20020;-47
2022/01/01 01:55:09;;;;;;;12.63;9.48;;;17.00;87.50;;;;;;5055748;28;20053;-45
2022/01/01 01:57:36;;;;;;;14.52;9.82;;;17.00;87.50;;;;;;5055575;28;20176;-46
2022/01/01 02:00:04;;;;;;;12.85;9.70;;;17.00;87.40;;;;;;5055578;28;20549;-45
2022/01/01 02:02:30;;;;;;;14.85;10.13;;;;;;;;;;5055416;28;20041;-46
2022/01/01 02:04:56;;;;;;;13.30;9.93;;;;;;;;;;5055269;28;20084;-46
2022/01/01 02:07:22;;;;;;;15.55;9.95;;;;;;;;;;5055337;28;20086;-46
2022/01/01 02:09:48;;;;;;;15.23;10.07;;;;;;;;;;5055414;28;20028;-45
2022/01/01 02:12:14;;;;;;;14.10;9.23;;;;;;;;;;5055371;28;20032;-45
2022/01/01 02:17:23;;;;;;;13.88;9.70;;;;;;;;;;5055545;28;20040;-46
2022/01/01 02:20:01;;;;;;;18.02;10.50;;;16.90;81.70;;;;;;5055178;28;20029;-45
2022/01/01 02:22:36;;;;;;;16.67;10.57;;;16.90;86.40;;;;;;5055123;28;20021;-46
2022/01/01 02:25:03;;;;;;;14.18;10.02;;;;;;;;;;5055043;28;20135;-46
2022/01/01 02:27:29;;;;;;;15.73;9.80;;;;;;;;;;5054945;28;20036;-45
2022/01/01 02:29:55;;;;;;;17.73;9.80;;;;;;;;;;5055032;28;20029;-48
2022/01/01 02:32:21;;;;;;;14.65;10.07;;;;;;;;;;5055037;28;20498;-45
2022/01/01 02:34:47;;;;;;;15.65;9.65;;;;;;;;;;5054872;28;20083;-46
2022/01/01 02:37:13;;;;;;;17.90;11.00;;;;;;;;;;5054898;28;20024;-46
2022/01/01 02:39:38;;;;;;;14.05;9.48;;;;;;;;;;5054790;28;20021;-46
2022/01/01 02:42:07;;;;;;;14.60;10.30;;;16.90;87.40;;;;;;5054768;28;20021;-45
2022/01/01 02:44:33;;;;;;;14.60;9.63;;;;;;;;;;5053541;28;20420;-46
2022/01/01 02:46:59;;;;;;;14.00;9.95;;;;;;;;;;5054765;28;20039;-45
2022/01/01 02:49:25;;;;;;;13.57;8.95;;;;;;;;;;5054796;28;20029;-47
2022/01/01 02:51:51;;;;;;;14.02;9.93;;;;;;;;;;5054807;28;20070;-47
2022/01/01 02:54:17;;;;;;;16.40;9.90;;;;;;;;;;5054532;28;20032;-47
2022/01/01 02:56:43;;;;;;;17.27;10.23;;;;;;;;;;5054483;28;20029;-47
2022/01/01 02:59:09;;;;;;;12.90;9.30;;;;;;;;;;5054494;28;20472;-48
2022/01/01 03:01:35;;;;;;;14.27;9.95;;;;;;;;;;5054273;28;20039;-47
2022/01/01 03:04:01;;;;;;;12.95;9.15;;;;;;;;;;5054175;28;20051;-46
2022/01/01 03:06:28;;;;;;;13.18;9.98;;;;;;;;;;5054236;28;20471;-46
2022/01/01 03:08:56;;;;;;;14.13;9.50;;;;;;;;;;5054581;28;20090;-47
2022/01/01 03:11:22;;;;;;;15.68;9.93;;;;;;;;;;5054198;28;20072;-46
2022/01/01 03:13:48;;;;;;;13.10;10.00;;;16.90;85.80;;;;;;5054134;28;20036;-46
2022/01/01 03:16:15;;;;;;;13.88;9.48;;;;;;;;;;5054211;28;20108;-48
2022/01/01 03:18:41;;;;;;;16.50;10.13;;;;;;;;;;5054098;28;20115;-46
2022/01/01 03:21:07;;;;;;;12.20;9.32;;;;;;;;;;5054076;28;20100;-46
2022/01/01 03:23:33;;;;;;;16.25;9.43;;;;;;;;;;5054018;28;20029;-48
2022/01/01 03:25:59;;;;;;;14.18;9.23;;;;;;;;;;5053939;28;20036;-47
2022/01/01 03:28:26;;;;;;;12.27;9.18;;;;;;;;;;5053960;28;20036;-47
2022/01/01 03:30:52;;;;;;;12.43;8.90;;;;;;;;;;5053848;28;20044;-48
2022/01/01 03:33:18;;;;;;;14.32;9.38;;;;;;;;;;5053809;28;20021;-48
2022/01/01 03:35:44;;;;;;;13.65;9.02;;;;;;;;;;5053730;28;20389;-47
2022/01/01 03:38:10;;;;;;;12.18;9.15;;;;;;;;;;5053955;28;20025;-48
2022/01/01 03:40:36;;;;;;;10.40;8.02;;;;;;;;;;5053631;28;20029;-47
2022/01/01 03:43:02;;;;;;;10.90;8.40;;;;;;;;;;5053571;28;20025;-47
2022/01/01 03:45:28;;;;;;;14.95;8.77;;;;;;;;;;5053553;28;20036;-48
2022/01/01 03:47:54;;;;;;;12.10;8.80;;;;;;;;;;5053488;28;20057;-46
2022/01/01 03:50:20;;;;;;;14.60;8.23;;;;;;;;;;5053528;28;20039;-46
2022/01/01 03:52:46;;;;;;;11.15;8.77;;;;;;;;;;5053360;28;20112;-47
2022/01/01 03:55:14;;;;;;;13.05;8.15;;;16.80;88.00;;;;;;5053432;28;20029;-47
2022/01/01 03:57:40;;;;;;;12.15;8.25;;;;;;;;;;5053130;28;20029;-46
2022/01/01 04:00:08;;;;;;;13.02;8.40;;;16.80;87.70;;;;;;5053255;28;20029;-47
2022/01/01 04:02:34;;;;;;;13.98;9.02;;;;;;;;;;5053510;28;20074;-48
2022/01/01 04:05:00;;;;;;;12.60;8.55;;;16.80;84.50;;;;;;5053053;28;20041;-47
2022/01/01 04:07:26;;;;;;;12.18;8.05;;;;;;;;;;5053183;28;20046;-47
2022/01/01 04:09:52;;;;;;;13.18;8.40;;;;;;;;;;5053098;28;20025;-47
2022/01/01 04:12:18;;;;;;;12.45;9.23;;;;;;;;;;5053023;28;20086;-48
2022/01/01 04:14:44;;;;;;;13.13;8.60;;;;;;;;;;5053033;28;20032;-47
2022/01/01 04:17:11;;;;;;;12.07;8.85;;;;;;;;;;5053230;28;20104;-48
2022/01/01 04:19:40;;;;;;;12.10;7.90;;;;;;;;;;5052902;28;20511;-48
2022/01/01 04:22:10;;;;;;;11.63;7.85;;;16.80;87.80;;;;;;5052966;28;20036;-45
2022/01/01 04:24:37;;;;;;;10.20;7.93;;;16.80;88.10;;;;;;5052861;28;20036;-45
2022/01/01 04:27:04;;;;;;;9.43;7.82;;;16.80;85.70;;;;;;5052778;28;20123;-46
2022/01/01 04:29:30;;;;;;;9.73;7.65;;;16.80;88.20;;;;;;5053096;28;20365;-45
2022/01/01 04:31:56;;;;;;;11.13;8.70;;;;;;;;;;5052648;28;20025;-45
2022/01/01 04:34:23;;;;;;;10.75;8.27;;;16.70;87.40;;;;;;5052670;28;20033;-45
2022/01/01 04:36:57;;;;;;;11.73;8.55;;;;;;;;;;5052921;28;20021;-46
2022/01/01 04:39:23;;;;;;;12.35;7.93;;;;;;;;;;5052947;28;20103;-47
2022/01/01 04:41:49;;;;;;;11.10;8.05;;;;;;;;;;5052907;28;20025;-48
2022/01/01 04:44:15;;;;;;;10.48;8.00;;;;;;;;;;5052513;28;20036;-48
2022/01/01 04:46:41;;;;;;;9.93;8.15;;;;;;;;;;5052455;28;20080;-46
2022/01/01 04:49:07;;;;;;;9.30;7.70;;;;;;;;;;5052389;28;20032;-46
2022/01/01 04:51:33;;;;;;;13.55;8.27;;;;;;;;;;5052433;28;20044;-47
2022/01/01 04:54:01;;;;;;;10.68;7.78;;;;;;;;;;5052384;28;20025;-47
2022/01/01 04:56:29;;;;;;;10.93;7.10;;;;;;;;;;5052345;28;20364;-47
2022/01/01 04:58:55;;;;;;;10.85;7.90;;;;;;;;;;5052257;28;20032;-48
2022/01/01 05:01:21;;;;;;;9.98;7.55;;;;;;;;;;5052124;28;20090;-47
2022/01/01 05:03:47;;;;;;;10.70;7.70;;;;;;;;;;5052018;28;20075;-48
2022/01/01 05:06:13;;;;;;;10.23;7.97;;;;;;;;;;5052124;28;20394;-48
2022/01/01 05:08:39;;;;;;;10.63;6.90;;;;;;;;;;5051523;28;20107;-47
2022/01/01 05:11:05;;;;;;;8.98;6.63;;;;;;;;;;5052067;28;20053;-47
2022/01/01 05:13:31;;;;;;;9.00;6.90;;;;;;;;;;5052066;28;20040;-47
2022/01/01 05:15:57;;;;;;;8.60;7.00;;;;;;;;;;5052012;28;20464;-48
2022/01/01 05:18:23;;;;;;;8.23;6.50;;;;;;;;;;5052046;28;20059;-46
2022/01/01 05:20:50;;;;;;;10.15;7.25;;;16.70;86.70;;;;;;5051990;28;20029;-47
2022/01/01 05:23:16;;;;;;;9.05;7.13;;;;;;;;;;5051920;28;20026;-47
2022/01/01 05:25:42;;;;;;;8.45;6.60;;;;;;;;;;5051831;28;20089;-47
2022/01/01 05:28:08;;;;;;;10.38;6.75;;;;;;;;;;5051938;28;20036;-46
2022/01/01 05:30:34;;;;;;;8.50;6.93;;;;;;;;;;5051923;28;20133;-48
2022/01/01 05:33:01;;;;;;;13.05;7.93;;;16.70;86.10;;;;;;5051920;28;20037;-48
2022/01/01 05:35:27;;;;;;;10.70;7.15;;;;;;;;;;5051940;28;20126;-47
2022/01/01 05:37:53;;;;;;;10.07;7.00;;;;;;;;;;5051811;28;20021;-46
2022/01/01 05:40:19;;;;;;;10.48;6.72;;;;;;;;;;5051770;28;20457;-47
2022/01/01 05:42:45;;;;;;;8.70;7.13;;;;;;;;;;5051781;28;20029;-47
2022/01/01 05:45:11;;;;;;;7.28;6.15;;;;;;;;;;5051589;28;20029;-47
2022/01/01 05:47:37;;;;;;;9.80;6.55;;;;;;;;;;5051706;28;20440;-46
2022/01/01 05:50:03;;;;;;;8.52;6.40;;;;;;;;;;5051749;28;20029;-47
2022/01/01 05:52:29;;;;;;;11.20;7.35;;;;;;;;;;5051731;28;20029;-46
2022/01/01 05:54:55;;;;;;;8.27;6.30;;;;;;;;;;5051755;28;20052;-48
2022/01/01 05:57:21;;;;;;;10.60;7.00;;;;;;;;;;5051627;28;20032;-48
2022/01/01 05:59:47;;;;;;;10.05;6.95;;;;;;;;;;5051602;28;20104;-48
2022/01/01 06:02:13;;;;;;;9.73;6.53;;;;;;;;;;5051506;28;20025;-47
2022/01/01 06:04:39;;;;;;;8.05;5.80;;;;;;;;;;5051423;28;20080;-46
2022/01/01 06:07:07;;;;;;;8.10;6.43;;;;;;;;;;5051477;28;20162;-46
2022/01/01 06:09:33;;;;;;;7.93;6.10;;;;;;;;;;5051830;28;20383;-47
2022/01/01 06:11:59;;;;;;;9.07;6.65;;;;;;;;;;5051556;28;20032;-47
2022/01/01 06:14:25;;;;;;;8.18;6.13;;;;;;;;;;5051720;28;20020;-47
2022/01/01 06:16:51;;;;;;;8.60;6.07;;;;;;;;;;5051498;28;20459;-47
2022/01/01 06:19:17;;;;;;;9.32;5.97;;;;;;;;;;5052779;28;20037;-47
2022/01/01 06:21:43;;;;;;;6.68;5.30;;;;;;;;;;5055436;28;20028;-47
2022/01/01 06:24:09;;;;;;;6.88;5.63;;;;;;;;;;5055131;28;20078;-47
2022/01/01 06:26:35;;;;;;;7.47;6.03;;;;;;;;;;5054974;28;20434;-47
2022/01/01 06:29:01;;;;;;;9.50;6.10;;;16.70;87.00;;;;;;5055111;28;20025;-45
2022/01/01 06:31:28;;;;;;;7.35;5.70;;;;;;;;;;5055070;28;20045;-45
2022/01/01 06:33:54;;;;;;;8.52;6.38;;;;;;;;;;5055232;28;20033;-45
2022/01/01 06:36:20;;;;;;;8.43;6.07;;;;;;;;;;5054855;28;20029;-46
2022/01/01 06:38:46;;;;;;;9.05;6.03;;;;;;;;;;5054783;28;20029;-46
2022/01/01 06:41:12;;;;;;;7.07;5.70;;;;;;;;;;5054864;28;20033;-46
2022/01/01 06:43:39;;;;;;;8.02;5.70;;;16.60;88.90;;;;;;5054743;28;20021;-46
2022/01/01 06:46:05;;;;;;;7.35;5.53;;;16.70;88.80;;;;;;5054679;28;20029;-45
2022/01/01 06:48:31;;;;;;;9.27;6.20;;;;;;;;;;5054760;28;20025;-47
2022/01/01 06:50:58;;;;;;;6.72;5.57;;;;;;;;;;5054952;28;20446;-47
2022/01/01 06:53:23;;;;;;;7.82;5.57;;;;;;;;;;5054655;28;20033;-46
2022/01/01 06:55:49;;;;;;;6.85;5.55;;;;;;;;;;5054555;28;20132;-48
2022/01/01 06:58:15;;;;;;;6.88;5.18;;;;;;;;;;5054487;28;20076;-47
2022/01/01 07:00:41;;;;;;;7.60;5.43;;;;;;;;;;5054484;28;20041;-47
2022/01/01 07:03:07;;;;;;;8.18;5.95;;;;;;;;;;5054343;28;20043;-45
2022/01/01 07:05:33;;;;;;;9.40;5.90;;;;;;;;;;5054143;28;20049;-47
2022/01/01 07:07:59;;;;;;;7.03;5.38;;;;;;;;;;5054372;28;20033;-45
2022/01/01 07:10:26;;;;;;;7.57;5.57;;;;;;;;;;5054300;28;20025;-45
2022/01/01 07:12:52;;;;;;;7.78;5.75;;;;;;;;;;5054216;28;20033;-46
2022/01/01 07:15:18;;;;;;;7.85;5.07;;;;;;;;;;5054193;28;20072;-46
2022/01/01 07:17:44;;;;;;;8.20;5.55;;;;;;;;;;5054077;28;20131;-46
2022/01/01 07:20:10;;;;;;;6.40;5.75;;;;;;;;;;5054113;28;20043;-45
2022/01/01 07:22:44;;;;;;;6.78;4.80;;;16.70;83.20;;;;;;5054005;28;20021;-46
2022/01/01 07:25:10;;;;;;;6.68;4.88;;;;;;;;;;5054028;28;20144;-46
2022/01/01 07:27:36;;;;;;;7.18;5.32;;;;;;;;;;5054049;28;20033;-47
2022/01/01 07:30:04;;;;;;;6.57;5.05;;;16.60;89.10;;;;;;5053789;28;20033;-46
2022/01/01 07:32:30;;;;;;;8.52;5.72;;;;;;;;;;5053382;28;20104;-45
2022/01/01 07:34:56;;;;;;;7.45;4.88;;;;;;;;;;5053785;28;20075;-45
2022/01/01 07:37:22;;;;;;;6.00;4.68;;;;;;;;;;5053746;28;20032;-46
2022/01/01 07:39:48;;;;;;;6.97;5.10;;;;;;;;;;5053670;28;20021;-46
2022/01/01 07:42:14;;;;;;;7.75;5.45;;;;;;;;;;5053931;28;20056;-46
2022/01/01 07:44:43;;;;;;;6.30;5.00;;;16.60;88.80;;;;;;5053716;28;20543;-45
2022/01/01 07:47:09;;;;;;;5.68;4.57;;;;;;;;;;5053585;28;20039;-45
2022/01/01 07:49:35;;;;;;;6.32;4.93;;;;;;;;;;5053635;28;20052;-46
2022/01/01 07:52:01;;;;;;;5.90;4.65;;;;;;;;;;5053695;28;20048;-47
2022/01/01 07:54:27;;;;;;;4.80;3.95;;;;;;;;;;5053493;28;20029;-45
2022/01/01 07:56:53;;;;;;;6.43;4.80;;;;;;;;;;5053380;28;20032;-45
2022/01/01 07:59:19;;;;;;;8.52;5.05;;;;;;;;;;5053316;28;20057;-45
2022/01/01 08:01:45;;;;;;;5.72;4.55;;;;;;;;;;5053290;28;20032;-45
2022/01/01 08:04:11;;;;;;;6.55;4.43;;;;;;;;;;5053143;28;20122;-46
2022/01/01 08:06:37;;;;;;;5.88;4.68;;;;;;;;;;5053179;28;20037;-45
2022/01/01 08:09:04;;;;;;;6.35;4.45;;;16.60;89.10;;;;;;5053160;28;20036;-46
2022/01/01 08:11:30;;;;;;;5.47;4.28;;;;;;;;;;5053136;28;20519;-45
2022/01/01 08:13:56;;;;;;;5.68;4.70;;;;;;;;;;5053059;28;20487;-46
2022/01/01 08:16:22;;;;;;;5.70;4.45;;;;;;;;;;5053065;28;20448;-45
2022/01/01 08:18:48;;;;;;;6.13;4.95;;;;;;;;;;5053021;28;20100;-45
2022/01/01 08:21:14;;;;;;;6.60;4.70;;;;;;;;;;5053315;28;20029;-45
2022/01/01 08:23:40;;;;;;;5.63;4.53;;;;;;;;;;5052911;28;20029;-46
2022/01/01 08:26:06;;;;;;;6.15;4.70;;;;;;;;;;5052733;28;20041;-44
2022/01/01 08:28:32;;;;;;;5.60;4.30;;;;;;;;;;5052829;28;20380;-45
2022/01/01 08:30:58;;;;;;;4.78;4.22;;;;;;;;;;5052756;28;20029;-45
2022/01/01 08:33:24;;;;;;;5.78;4.28;;;;;;;;;;5052769;28;20025;-46
2022/01/01 08:35:50;;;;;;;6.60;4.43;;;;;;;;;;5052689;28;20472;-45
2022/01/01 08:38:16;;;;;;;4.45;4.05;;;;;;;;;;5052708;28;20033;-45
2022/01/01 08:40:42;;;;;;;5.20;4.63;;;;;;;;;;5052646;28;20037;-45
2022/01/01 08:43:08;;;;;;;5.82;4.28;;;;;;;;;;5051680;28;20024;-45
2022/01/01 08:45:37;;;;;;;7.55;4.18;;;16.70;88.90;;;;;;5052492;28;20122;-46
2022/01/01 08:48:03;;;;;;;7.95;4.35;;;;;;;;;;5052413;28;20025;-45
2022/01/01 08:50:29;;;;;;;4.40;3.83;;;;;;;;;;5052447;28;20502;-45
2022/01/01 08:52:55;;;;;;;5.93;4.35;;;;;;;;;;5052543;28;20032;-46
2022/01/01 08:55:21;;;;;;;5.72;4.32;;;;;;;;;;5052704;28;20059;-46
2022/01/01 08:57:47;;;;;;;5.82;4.50;;;;;;;;;;5052465;28;20415;-45
2022/01/01 09:00:13;;;;;;;4.93;4.35;;;;;;;;;;5052679;28;20029;-46
2022/01/01 09:02:39;;;;;;;6.25;4.13;;;;;;;;;;5052318;28;20029;-46
2022/01/01 09:05:05;;;;;;;5.10;4.00;;;;;;;;;;5052185;28;20545;-45
2022/01/01 09:07:31;;;;;;;4.50;3.95;;;;;;;;;;5052359;28;20028;-46
2022/01/01 09:09:58;;;;;;;6.03;4.50;;;16.60;86.50;;;;;;5052332;28;20099;-45
2022/01/01 09:12:25;;;;;;;6.25;4.40;;;16.60;88.90;;;;;;5052325;28;20033;-46
2022/01/01 09:14:52;;;;;;;4.50;3.70;;;16.60;88.00;;;;;;5052425;28;20017;-46
2022/01/01 09:17:18;;;;;;;4.68;3.47;;;;;;;;;;5052285;28;20547;-47
2022/01/01 09:19:44;;;;;;;4.65;4.13;;;;;;;;;;5051979;28;20392;-47
2022/01/01 09:22:10;;;;;;;5.65;4.05;;;;;;;;;;5052254;28;20025;-47
2022/01/01 09:24:36;;;;;;;5.72;3.78;;;;;;;;;;5052017;28;20464;-47
2022/01/01 09:27:03;;;;;;;3.97;3.30;;;16.60;85.80;;;;;;5051822;28;20074;-48
2022/01/01 09:29:29;;;;;;;7.60;3.75;;;;;;;;;;5051880;28;20025;-48
2022/01/01 09:31:55;;;;;;;4.28;3.45;;;;;;;;;;5051903;28;20075;-47
2022/01/01 09:34:21;;;;;;;4.07;3.28;;;;;;;;;;5051990;28;20057;-46
2022/01/01 09:36:49;;;;;;;7.45;4.07;;;;;;;;;;5052129;28;20056;-46
2022/01/01 09:39:15;;;;;;;4.75;3.65;;;;;;;;;;5052054;28;20031;-46
2022/01/01 09:41:43;;;;;;;5.75;3.38;;;;;;;;;;5052107;28;20017;-47
2022/01/01 09:44:18;;;;;;;5.43;3.97;;;16.70;83.40;;;;;;5051852;28;20112;-48
2022/01/01 09:46:47;;;;;;;5.32;4.50;;;16.70;89.40;;;;;;5051795;28;20037;-47
2022/01/01 09:49:13;;;;;;;8.23;4.28;;;16.70;88.50;;;;;;5052040;28;20052;-48
2022/01/01 09:51:41;;;;;;;7.07;4.03;;;16.70;90.00;;;;;;5050502;28;20112;-47
2022/01/01 09:54:07;;;;;;;4.20;3.53;;;16.70;86.70;;;;;;5053003;28;20028;-46
2022/01/01 09:56:33;;;;;;;8.50;3.72;;;;;;;;;;5055740;28;20486;-46
2022/01/01 09:58:59;;;;;;;7.93;3.38;;;;;;;;;;5055896;28;20029;-46
2022/01/01 10:01:25;;;;;;;4.68;3.47;;;;;;;;;;5055659;28;20040;-47
2022/01/01 10:03:53;;;;;;;6.80;4.38;;;16.70;90.10;;;;;;5055623;28;20531;-48
2022/01/01 10:06:20;;;;;;;6.03;3.80;;;16.80;90.00;;;;;;5055914;28;20082;-46
2022/01/01 10:09:03;;;;;;;6.07;3.90;;;16.70;84.00;;;;;;5055699;28;20033;-46
2022/01/01 10:11:30;;;;;;;7.57;4.13;;;;;;;;;;5056071;28;20033;-47
2022/01/01 10:13:56;;;;;;;6.07;3.85;;;;;;;;;;5055574;28;20025;-47
2022/01/01 10:16:22;;;;;;;3.75;3.28;;;;;;;;;;5055475;28;20040;-46
2022/01/01 10:18:53;;;;;;;3.95;3.33;;;16.70;83.90;;;;;;5055462;28;20047;-46
2022/01/01 10:21:21;;;;;;;5.30;3.78;;;16.80;90.00;;;;;;5055391;28;20108;-46
2022/01/01 10:23:52;;;;;;;6.68;3.90;;;16.80;84.10;;;;;;5055438;28;20025;-46
2022/01/01 10:29:26;;;;;;;6.45;3.92;;;16.70;84.10;;;;;;5055657;28;20391;-47
2022/01/01 10:32:01;;;;;;;7.77;3.70;;;16.80;84.40;;;;;;5055348;28;20033;-46
2022/01/01 10:34:33;;;;;;;4.60;3.92;;;16.70;84.60;;;;;;5055093;28;20278;-47
2022/01/01 10:36:59;;;;;;;4.22;3.42;;;16.80;87.40;;;;;;5055101;28;20028;-47
2022/01/01 10:39:26;;;;;;;7.18;3.47;;;;;;;;;;5055070;28;20040;-47
2022/01/01 10:41:58;;;;;;;7.22;3.72;;;16.70;84.30;;;;;;5055231;28;20021;-46
2022/01/01 10:44:38;;;;;;;4.75;3.88;;;16.80;84.30;;;;;;5054924;28;20029;-47
2022/01/01 10:47:14;;;;;;;9.13;4.00;;;16.80;84.50;;;;;;5054831;28;20116;-46
2022/01/01 10:52:13;;;;;;;5.47;3.90;;;;;;;;;;5054845;28;20051;-47
2022/01/01 10:54:50;;;;;;;5.63;4.15;;;16.70;90.00;;;;;;5054976;28;20079;-46
2022/01/01 10:57:36;;;;;;;8.10;4.28;;;16.80;84.30;;;;;;5054760;28;20025;-45
2022/01/01 11:00:21;;;;;;;7.97;4.20;;;16.80;84.40;;;;;;5054642;28;20039;-47
2022/01/01 11:02:57;;;;;;;5.72;3.72;;;16.40;90.20;;;;;;5054493;28;20108;-47
2022/01/01 11:05:31;;;;;;;6.18;3.97;;;16.80;84.20;;;;;;5053529;28;20041;-47
2022/01/01 11:07:57;;;;;;;5.88;3.45;;;;;;;;;;5054606;28;20098;-47
2022/01/01 11:10:26;;;;;;;6.78;3.92;;;16.80;89.80;;;;;;5054469;28;20044;-47
2022/01/01 11:12:53;;;;;;;5.07;4.03;;;16.80;89.80;;;;;;5054358;28;20029;-48
2022/01/01 11:15:20;;;;;;;6.15;3.70;;;;;;;;;;5054339;28;20029;-45
2022/01/01 11:17:47;;;;;;;14.38;3.92;;;16.70;87.50;;;;;;5054322;28;20029;-46
2022/01/01 11:20:13;;;;;;;7.15;4.45;;;16.90;87.70;;;;;;5054525;28;20388;-47
2022/01/01 11:22:39;;;;;;;5.25;3.80;;;;;;;;;;5054203;28;20036;-46
2022/01/01 11:25:05;;;;;;;6.18;4.05;;;;;;;;;;5054157;28;20047;-45
2022/01/01 11:27:32;;;;;;;8.18;3.88;;;;;;;;;;5054464;28;20470;-46
2022/01/01 11:29:59;;;;;;;5.85;4.18;;;;;;;;;;5053872;28;20100;-45
2022/01/01 11:32:37;;;;;;;5.65;4.05;;;16.80;84.40;;;;;;5053975;28;20112;-46
2022/01/01 11:35:17;;;;;;;5.22;4.05;;;16.80;87.00;;;;;;5053747;28;20033;-47
2022/01/01 11:38:00;;;;;;;6.93;3.88;;;16.80;84.20;;;;;;5053827;28;20104;-47
2022/01/01 11:40:31;;;;;;;5.25;4.28;;;16.80;90.00;;;;;;5053754;28;20117;-46
2022/01/01 11:42:57;;;;;;;6.25;4.13;;;;;;;;;;5053644;28;20036;-49
2022/01/01 11:45:44;;;;;;;9.25;4.32;;;16.80;83.80;;;;;;5053223;28;20033;-49
2022/01/01 11:48:40;;;;;;;5.25;4.13;;;16.80;83.70;;;;;;5052221;28;20554;-47
2022/01/01 11:51:38;;;;;;;7.72;4.35;;;16.80;83.60;;;;;;5047759;28;20037;-48
2022/01/01 11:54:18;;;;;;;7.18;4.00;;;16.80;83.40;;;;;;5052434;28;20021;-46
2022/01/01 11:56:49;;;;;;;7.40;4.32;;;16.80;83.80;;;;;;5052352;28;20033;-47
2022/01/01 11:59:39;;;;;;;6.72;3.95;;;16.80;83.70;;;;;;5052248;28;20098;-47
2022/01/01 12:02:20;;;;;;;6.30;4.27;;;16.90;89.70;;;;;;5053564;28;20029;-46
2022/01/01 12:04:46;;;;;;;5.30;3.75;;;;;;;;;;5053319;28;20139;-50
2022/01/01 12:07:20;;;;;;;5.97;4.47;;;16.80;83.50;;;;;;5053357;28;20115;-47
2022/01/01 12:10:01;;;;;;;6.93;3.88;;;16.60;83.20;;;;;;5053364;28;20048;-47
2022/01/01 12:12:59;;;;;;;5.35;3.80;;;16.80;83.40;;;;;;5053404;28;20036;-49
2022/01/01 12:15:25;;;;;;;5.10;3.42;;;;;;;;;;5053283;28;20059;-50
2022/01/01 12:17:53;;;;;;;6.85;3.90;;;;;;;;;;5053338;28;20055;-50
2022/01/01 12:20:24;;;;;;;6.80;3.95;;;16.80;89.30;;;;;;5053495;28;20059;-50
2022/01/01 12:22:51;;;;;;;6.57;4.03;;;16.80;89.40;;;;;;5053181;28;20029;-50
2022/01/01 12:25:25;;;;;;;4.07;3.55;;;16.80;83.60;;;;;;5053034;28;20029;-51
2022/01/01 12:27:55;;;;;;;6.10;4.05;;;16.90;89.50;;;;;;5053058;28;20037;-49
2022/01/01 12:30:44;;;;;;;7.68;4.22;;;16.80;83.70;;;;;;5052991;28;20120;-51
2022/01/01 12:33:20;;;;;;;4.53;3.97;;;16.70;89.90;;;;;;5052931;28;20071;-52
2022/01/01 12:35:57;;;;;;;5.75;4.35;;;16.70;83.60;;;;;;5052843;28;20039;-49
2022/01/01 12:38:28;;;;;;;6.57;4.30;;;16.80;89.60;;;;;;5052900;28;20028;-49
2022/01/01 12:41:03;;;;;;;5.82;4.22;;;16.80;83.90;;;;;;5052756;28;20096;-49
2022/01/01 12:43:51;;;;;;;4.28;3.60;;;16.70;89.60;;;;;;5052832;28;20029;-49
2022/01/01 12:46:24;;;;;;;5.75;3.53;;;16.80;89.40;;;;;;5052626;28;20033;-50
2022/01/01 12:48:50;;;;;;;5.20;3.90;;;;;;;;;;5052662;28;20075;-51
2022/01/01 12:51:23;;;;;;;5.50;3.97;;;16.80;89.90;;;;;;5052562;28;20556;-50
2022/01/01 12:53:52;;;;;;;5.80;3.60;;;;;;;;;;5052917;28;20017;-50
2022/01/01 12:56:20;;;;;;;13.50;3.70;;;16.80;89.30;;;;;;5052839;28;20139;-51
2022/01/01 12:58:51;;;;;;;6.43;3.72;;;16.80;89.20;;;;;;5052602;28;20028;-53
2022/01/01 13:01:28;;;;;;;6.03;3.53;;;16.90;83.70;;;;;;5052452;28;20365;-49
2022/01/01 13:04:04;;;;;;;4.55;3.70;;;16.60;89.30;;;;;;5052357;28;20044;-51
2022/01/01 13:06:38;;;;;;;4.78;3.80;;;16.80;89.40;;;;;;5052419;28;20051;-48
2022/01/01 13:09:13;;;;;;;4.75;3.47;;;16.80;89.50;;;;;;5052440;28;20036;-49
2022/01/01 13:11:40;;;;;;;4.28;3.22;;;16.80;89.60;;;;;;5052361;28;20025;-50
2022/01/01 13:14:08;;;;;;;4.63;3.30;;;16.80;86.50;;;;;;5052281;28;20036;-49
2022/01/01 13:16:34;;;;;;;3.83;3.13;;;;;;;;;;5052279;28;20472;-46
2022/01/01 13:19:00;;;;;;;5.60;3.42;;;;;;;;;;5052247;28;20388;-49
2022/01/01 13:21:26;;;;;;;4.30;2.85;;;;;;;;;;5052547;28;20029;-49
2022/01/01 13:23:53;;;;;;;6.20;3.47;;;;;;;;;;5052156;28;20063;-49
2022/01/01 13:26:19;;;;;;;4.78;3.13;;;;;;;;;;5052302;28;20122;-48
2022/01/01 13:28:45;;;;;;;4.22;2.95;;;;;;;;;;5051672;28;20031;-48
2022/01/01 13:31:13;;;;;;;4.40;3.15;;;16.80;89.30;;;;;;5052113;28;20055;-49
2022/01/01 13:33:41;;;;;;;5.22;3.00;;;16.80;89.40;;;;;;5052134;28;20025;-50
2022/01/01 13:36:07;;;;;;;5.50;2.83;;;;;;;;;;5052042;28;20373;-47
2022/01/01 13:38:33;;;;;;;3.88;2.90;;;16.80;89.50;;;;;;5052001;28;20120;-48
2022/01/01 13:41:02;;;;;;;4.72;3.17;;;16.70;89.60;;;;;;5052307;28;20041;-48
2022/01/01 13:43:34;;;;;;;4.03;2.72;;;16.70;83.80;;;;;;5052249;28;20540;-48
2022/01/01 13:46:21;;;;;;;5.38;3.00;;;16.70;83.60;;;;;;5051957;28;20120;-47
2022/01/01 13:48:48;;;;;;;5.88;3.08;;;16.70;89.50;;;;;;5052033;28;20029;-48
2022/01/01 13:51:19;;;;;;;2.67;2.35;;;16.70;89.50;;;;;;5052222;28;20071;-50
2022/01/01 13:53:45;;;;;;;3.03;2.63;;;;;;;;;;5052326;28;20021;-49
2022/01/01 13:56:21;;;;;;;3.58;2.78;;;16.70;83.80;;;;;;5051883;28;20025;-48
2022/01/01 13:58:50;;;;;;;4.20;3.08;;;16.70;89.50;;;;;;5052191;28;20074;-48
2022/01/01 14:01:18;;;;;;;3.03;2.40;;;16.70;89.60;;;;;;5051749;28;20061;-48
2022/01/01 14:03:45;;;;;;;4.63;2.40;;;16.70;89.50;;;;;;5051680;28;20067;-49
2022/01/01 14:06:11;;;;;;;3.45;2.42;;;;;;;;;;5051713;28;20112;-47